Time;durP1;ratioP1;P1;durP2;ratioP2;P2;SDS_P1;SDS_P2;PMS_P1;PMS_P2;Temp;Humidity;BMP_temperature;BMP_pressure;BME280_temperature;BME280_humidity;BME280_pressure;Samples;Min_cycle;Max_cycle;Signal;HPM_P1;HPM_P2
2021/10/06 00:02:15;;;;;;;13.38;8.73;;;;;;;;;;143725;596;45020;-51
2021/10/06 00:04:42;;;;;;;14.27;9.52;;;;;;;;;;143729;640;46021;-52
2021/10/06 00:07:09;;;;;;;12.55;7.62;;;;;;;;;;143730;564;47020;-52
2021/10/06 00:09:36;;;;;;;11.75;9.00;;;;;;;;;;143731;607;46012;-52
2021/10/06 00:12:04;;;;;;;12.05;8.82;;;;;;;;;;143731;630;45021;-52
2021/10/06 00:14:31;;;;;;;11.48;8.50;;;;;;;;;;143732;620;46012;-51
2021/10/06 00:16:58;;;;;;;12.27;8.18;;;;;;;;;;143728;564;47020;-52
2021/10/06 00:19:25;;;;;;;15.60;8.68;;;;;;;;;;143729;601;46013;-51
2021/10/06 00:21:52;;;;;;;16.70;10.60;;;;;;;;;;143727;578;45021;-51
2021/10/06 00:24:19;;;;;;;13.25;9.63;;;;;;;;;;143727;584;46020;-51
2021/10/06 00:26:46;;;;;;;20.23;10.40;;;;;;;;;;143729;670;47021;-52
2021/10/06 00:29:13;;;;;;;15.05;9.07;;;;;;;;;;143732;570;46020;-51
2021/10/06 00:31:40;;;;;;;17.52;9.68;;;;;;;;;;143728;582;45020;-52
2021/10/06 00:34:07;;;;;;;12.98;8.95;;;;;;;;;;143731;581;46013;-52
2021/10/06 00:36:34;;;;;;;16.35;9.50;;;;;;;;;;143726;571;47023;-52
2021/10/06 00:39:01;;;;;;;17.67;11.10;;;;;;;;;;143731;569;46028;-52
2021/10/06 00:41:28;;;;;;;15.88;10.77;;;;;;;;;;143726;569;45020;-52
2021/10/06 00:43:55;;;;;;;12.82;9.20;;;;;;;;;;143733;581;46021;-52
2021/10/06 00:46:22;;;;;;;14.30;9.25;;;;;;;;;;143731;674;46022;-52
2021/10/06 00:48:49;;;;;;;21.67;10.18;;;;;;;;;;143731;634;46013;-51
2021/10/06 00:51:17;;;;;;;14.63;9.52;;;;;;;;;;143727;587;45021;-52
2021/10/06 00:53:44;;;;;;;13.32;10.00;;;;;;;;;;143730;637;46012;-52
2021/10/06 00:56:11;;;;;;;14.80;9.30;;;;;;;;;;143728;596;47022;-52
2021/10/06 00:58:38;;;;;;;12.65;9.30;;;;;;;;;;143730;603;47012;-51
2021/10/06 01:01:05;;;;;;;13.05;9.07;;;;;;;;;;143725;564;45020;-52
2021/10/06 01:03:32;;;;;;;19.02;12.80;;;;;;;;;;143731;580;46013;-52
2021/10/06 01:06:00;;;;;;;13.65;9.85;;;;;;;;;;143726;615;47023;-52
2021/10/06 01:08:27;;;;;;;22.83;11.32;;;;;;;;;;143732;582;46012;-52
2021/10/06 01:10:54;;;;;;;11.50;8.63;;;;;;;;;;143727;676;45021;-51
2021/10/06 01:13:21;;;;;;;14.60;10.20;;;;;;;;;;143733;601;46012;-52
2021/10/06 01:15:51;;;;;;;13.93;9.77;;;;;;;;;;143720;564;47020;-52
2021/10/06 01:18:18;;;;;;;10.43;8.52;;;;;;;;;;143731;700;47012;-51
2021/10/06 01:20:45;;;;;;;11.43;9.18;;;;;;;;;;143727;573;45021;-52
2021/10/06 01:23:14;;;;;;;11.57;9.35;;;;;;;;;;143731;616;46012;-51
2021/10/06 01:25:41;;;;;;;16.52;9.85;;;;;;;;;;143728;585;46049;-52
2021/10/06 01:28:08;;;;;;;19.90;10.45;;;;;;;;;;143730;612;46012;-51
2021/10/06 01:30:36;;;;;;;19.60;10.95;;;;;;;;;;143724;587;45020;-52
2021/10/06 01:33:03;;;;;;;16.42;9.98;;;;;;;;;;143728;588;46013;-52
2021/10/06 01:35:30;;;;;;;15.93;11.45;;;;;;;;;;143726;630;47021;-52
2021/10/06 01:37:58;;;;;;;25.52;15.40;;;;;;;;;;143730;589;46012;-51
2021/10/06 01:40:25;;;;;;;21.23;13.88;;;;;;;;;;143725;660;45021;-51
2021/10/06 01:42:53;;;;;;;17.85;12.43;;;;;;;;;;143728;587;46012;-52
2021/10/06 01:45:26;;;;;;;22.70;14.07;;;;;;;;;;143732;607;47020;-52
2021/10/06 01:47:53;;;;;;;30.37;19.40;;;;;;;;;;143729;609;46013;-51
2021/10/06 01:50:22;;;;;;;36.15;20.45;;;;;;;;;;143727;583;45021;-52
2021/10/06 01:52:49;;;;;;;27.45;18.17;;;;;;;;;;143733;564;46020;-52
2021/10/06 01:55:23;;;;;;;26.65;16.45;;;;;;;;;;143731;579;47022;-52
2021/10/06 01:57:50;;;;;;;18.62;11.38;;;;;;;;;;143730;607;47012;-52
2021/10/06 02:00:17;;;;;;;21.48;12.82;;;;;;;;;;143726;619;45020;-51
2021/10/06 02:02:44;;;;;;;24.65;14.32;;;;;;;;;;143729;588;46013;-52
2021/10/06 02:05:11;;;;;;;17.92;12.52;;;;;;;;;;143727;651;47020;-52
2021/10/06 02:07:38;;;;;;;24.63;15.35;;;;;;;;;;143732;571;46012;-52
2021/10/06 02:10:07;;;;;;;19.83;13.52;;;;;;;;;;143727;569;46020;-52
2021/10/06 02:12:34;;;;;;;27.27;17.12;;;;;;;;;;143732;566;46012;-52
2021/10/06 02:15:02;;;;;;;26.85;15.38;;;;;;;;;;143727;588;47020;-53
2021/10/06 02:17:29;;;;;;;23.17;14.43;;;;;;;;;;143731;584;46012;-52
2021/10/06 02:19:56;;;;;;;22.08;13.88;;;;;;;;;;143731;569;45021;-53
2021/10/06 02:22:23;;;;;;;20.50;13.38;;;;;;;;;;143731;589;46020;-53
2021/10/06 02:24:50;;;;;;;20.42;12.32;;;;;;;;;;143731;569;47020;-52
2021/10/06 02:27:18;;;;;;;24.92;16.17;;;;;;;;;;143728;581;46012;-52
2021/10/06 02:29:45;;;;;;;24.58;15.13;;;;;;;;;;143726;572;45020;-52
2021/10/06 02:32:12;;;;;;;23.30;12.63;;;;;;;;;;143729;571;46013;-52
2021/10/06 02:34:39;;;;;;;18.77;12.07;;;;;;;;;;143732;628;47020;-53
2021/10/06 02:37:06;;;;;;;21.30;13.25;;;;;;;;;;143732;590;46012;-53
2021/10/06 02:39:33;;;;;;;18.12;12.45;;;;;;;;;;143727;576;45021;-52
2021/10/06 02:42:00;;;;;;;18.00;11.85;;;;;;;;;;143732;588;46013;-52
2021/10/06 02:44:27;;;;;;;24.10;13.68;;;;;;;;;;143730;671;47022;-51
2021/10/06 02:46:54;;;;;;;19.25;13.98;;;;;;;;;;143731;578;46013;-52
2021/10/06 02:49:22;;;;;;;18.15;11.60;;;;;;;;;;143728;713;45021;-52
2021/10/06 02:51:49;;;;;;;20.73;11.48;;;;;;;;;;143732;588;46020;-52
2021/10/06 02:54:16;;;;;;;24.23;13.60;;;;;;;;;;143724;589;47022;-53
2021/10/06 02:56:43;;;;;;;18.33;13.40;;;;;;;;;;143730;570;47014;-52
2021/10/06 02:59:10;;;;;;;16.12;11.60;;;;;;;;;;143726;611;45908;-52
2021/10/06 03:01:37;;;;;;;16.00;11.52;;;;;;;;;;143732;585;46020;-53
2021/10/06 03:04:05;;;;;;;20.67;12.45;;;;;;;;;;143727;583;47023;-53
2021/10/06 03:06:32;;;;;;;22.52;14.00;;;;;;;;;;143731;636;46012;-52
2021/10/06 03:08:59;;;;;;;23.10;14.00;;;;;;;;;;143725;609;46909;-52
2021/10/06 03:11:26;;;;;;;21.75;13.05;;;;;;;;;;143729;587;46012;-52
2021/10/06 03:13:53;;;;;;;23.98;13.73;;;;;;;;;;143725;615;47020;-52
2021/10/06 03:16:20;;;;;;;17.30;13.43;;;;;;;;;;143731;620;47012;-52
2021/10/06 03:18:47;;;;;;;22.95;12.98;;;;;;;;;;143726;591;45909;-52
2021/10/06 03:21:14;;;;;;;18.92;12.45;;;;;;;;;;143728;602;46012;-52
2021/10/06 03:23:41;;;;;;;20.70;11.75;;;;;;;;;;143728;608;47022;-52
2021/10/06 03:26:08;;;;;;;14.57;10.73;;;;;;;;;;143729;752;47013;-51
2021/10/06 03:28:35;;;;;;;16.05;11.57;;;;;;;;;;143727;592;45026;-52
2021/10/06 03:31:02;;;;;;;14.40;10.63;;;;;;;;;;143732;616;46020;-52
2021/10/06 03:33:29;;;;;;;12.70;9.98;;;;;;;;;;143725;584;47021;-52
2021/10/06 03:35:56;;;;;;;18.27;10.75;;;;;;;;;;143731;604;46027;-53
2021/10/06 03:38:23;;;;;;;21.85;11.77;;;;;;;;;;143725;564;46020;-52
2021/10/06 03:40:50;;;;;;;24.52;13.30;;;;;;;;;;143732;586;46021;-52
2021/10/06 03:43:17;;;;;;;15.07;10.77;;;;;;;;;;143728;622;47023;-52
2021/10/06 03:45:45;;;;;;;25.90;15.93;;;;;;;;;;143731;613;47012;-53
2021/10/06 03:48:12;;;;;;;22.30;14.02;;;;;;;;;;143728;585;45021;-52
2021/10/06 03:50:39;;;;;;;20.50;13.15;;;;;;;;;;143733;612;46012;-52
2021/10/06 03:53:06;;;;;;;33.85;17.12;;;;;;;;;;143728;564;47020;-52
2021/10/06 03:55:33;;;;;;;18.70;13.35;;;;;;;;;;143731;564;46013;-52
2021/10/06 03:58:01;;;;;;;21.20;13.15;;;;;;;;;;143724;569;46020;-52
2021/10/06 04:00:28;;;;;;;18.12;10.95;;;;;;;;;;143731;605;46020;-52
2021/10/06 04:02:55;;;;;;;18.25;12.45;;;;;;;;;;143731;573;47022;-53
2021/10/06 04:05:22;;;;;;;21.67;12.93;;;;;;;;;;143729;582;46012;-53
2021/10/06 04:07:49;;;;;;;16.85;10.65;;;;;;;;;;143726;580;45020;-53
2021/10/06 04:10:16;;;;;;;18.00;10.38;;;;;;;;;;143732;656;46021;-52
2021/10/06 04:12:43;;;;;;;20.65;11.70;;;;;;;;;;143729;592;47020;-52
2021/10/06 04:15:10;;;;;;;19.10;12.18;;;;;;;;;;143729;732;47012;-53
2021/10/06 04:17:37;;;;;;;25.00;12.93;;;;;;;;;;143725;575;46020;-52
2021/10/06 04:20:05;;;;;;;18.45;11.73;;;;;;;;;;143729;652;46020;-52
2021/10/06 04:22:32;;;;;;;21.75;12.48;;;;;;;;;;143729;569;47022;-53
2021/10/06 04:24:59;;;;;;;24.37;14.38;;;;;;;;;;143729;586;47012;-53
2021/10/06 04:27:25;;;;;;;27.98;15.68;;;;;;;;;;143725;638;45021;-53
2021/10/06 04:29:52;;;;;;;26.35;18.70;;;;;;;;;;143730;585;46012;-52
2021/10/06 04:32:20;;;;;;;24.80;15.60;;;;;;;;;;143727;581;46032;-52
2021/10/06 04:34:47;;;;;;;24.67;13.70;;;;;;;;;;143730;572;46032;-52
2021/10/06 04:37:14;;;;;;;17.80;13.50;;;;;;;;;;143728;578;45020;-52
2021/10/06 04:39:41;;;;;;;18.52;12.18;;;;;;;;;;143731;569;46020;-52
2021/10/06 04:42:08;;;;;;;17.27;11.57;;;;;;;;;;143728;630;47020;-53
2021/10/06 04:44:35;;;;;;;27.10;13.85;;;;;;;;;;143731;583;46012;-53
2021/10/06 04:47:02;;;;;;;20.10;13.18;;;;;;;;;;143728;604;45021;-52
2021/10/06 04:49:29;;;;;;;33.05;16.45;;;;;;;;;;143729;728;46012;-52
2021/10/06 04:51:57;;;;;;;40.60;17.37;;;;;;;;;;143728;598;47022;-53
2021/10/06 04:54:24;;;;;;;31.17;14.30;;;;;;;;;;143729;591;46012;-52
2021/10/06 04:56:51;;;;;;;29.48;15.18;;;;;;;;;;143726;574;45021;-53
2021/10/06 04:59:18;;;;;;;19.15;12.45;;;;;;;;;;143733;642;46012;-52
2021/10/06 05:01:45;;;;;;;28.17;14.93;;;;;;;;;;143725;594;47022;-52
2021/10/06 05:04:12;;;;;;;19.77;14.02;;;;;;;;;;143729;705;46012;-52
2021/10/06 05:06:39;;;;;;;18.80;11.98;;;;;;;;;;143725;629;45024;-53
2021/10/06 05:09:06;;;;;;;17.80;11.20;;;;;;;;;;143727;570;47012;-52
2021/10/06 05:11:33;;;;;;;25.98;13.65;;;;;;;;;;143727;709;47020;-53
2021/10/06 05:14:00;;;;;;;34.20;17.77;;;;;;;;;;143729;618;46012;-53
2021/10/06 05:16:27;;;;;;;24.15;13.57;;;;;;;;;;143728;617;45021;-52
2021/10/06 05:18:54;;;;;;;40.17;16.85;;;;;;;;;;143733;619;46013;-52
2021/10/06 05:21:21;;;;;;;17.25;12.50;;;;;;;;;;143731;606;47022;-52
2021/10/06 05:23:47;;;;;;;22.50;13.20;;;;;;;;;;143726;647;46013;-53
2021/10/06 05:26:14;;;;;;;33.55;16.15;;;;;;;;;;143726;599;45021;-53
2021/10/06 05:28:41;;;;;;;21.85;13.02;;;;;;;;;;143729;566;46012;-53
2021/10/06 05:31:09;;;;;;;22.13;14.32;;;;;;;;;;143732;596;47020;-52
2021/10/06 05:33:36;;;;;;;24.70;13.20;;;;;;;;;;143729;580;46012;-52
2021/10/06 05:36:05;;;;;;;27.35;14.55;;;;;;;;;;143726;607;45020;-52
2021/10/06 05:38:32;;;;;;;26.50;14.55;;;;;;;;;;143734;569;46012;-53
2021/10/06 05:40:59;;;;;;;35.80;17.25;;;;;;;;;;143729;564;47023;-53
2021/10/06 05:43:26;;;;;;;39.08;17.67;;;;;;;;;;143727;626;47012;-52
2021/10/06 05:45:53;;;;;;;40.75;16.90;;;;;;;;;;143729;624;45020;-52
2021/10/06 05:48:20;;;;;;;25.20;14.00;;;;;;;;;;143733;564;46021;-52
2021/10/06 05:50:47;;;;;;;38.15;16.75;;;;;;;;;;143728;605;47020;-52
2021/10/06 05:53:14;;;;;;;28.65;13.93;;;;;;;;;;143726;576;47012;-53
2021/10/06 05:55:42;;;;;;;23.15;14.07;;;;;;;;;;143728;582;45021;-52
2021/10/06 05:58:09;;;;;;;31.87;15.40;;;;;;;;;;143732;564;46020;-53
2021/10/06 06:00:36;;;;;;;49.10;16.87;;;;;;;;;;143726;579;47020;-52
2021/10/06 06:03:03;;;;;;;39.42;15.85;;;;;;;;;;143729;605;46031;-53
2021/10/06 06:05:30;;;;;;;35.97;14.80;;;;;;;;;;143726;584;45020;-53
2021/10/06 06:07:57;;;;;;;32.75;14.25;;;;;;;;;;143729;589;46012;-52
2021/10/06 06:10:24;;;;;;;50.22;19.00;;;;;;;;;;143728;572;47023;-53
2021/10/06 06:12:51;;;;;;;34.60;15.45;;;;;;;;;;143726;564;46012;-52
2021/10/06 06:15:18;;;;;;;35.95;15.43;;;;;;;;;;143728;569;45020;-53
2021/10/06 06:17:45;;;;;;;33.15;14.18;;;;;;;;;;143730;606;46012;-52
2021/10/06 06:20:14;;;;;;;40.60;14.30;;;;;;;;;;143729;577;47022;-53
2021/10/06 06:22:42;;;;;;;35.00;14.98;;;;;;;;;;143725;587;47012;-53
2021/10/06 06:25:11;;;;;;;24.42;13.20;;;;;;;;;;143726;601;45021;-52
2021/10/06 06:27:37;;;;;;;29.35;12.37;;;;;;;;;;143733;644;46020;-54
2021/10/06 06:30:06;;;;;;;19.10;11.02;;;;;;;;;;143732;617;47020;-52
2021/10/06 06:32:33;;;;;;;27.90;11.10;;;;;;;;;;143729;609;46012;-53
2021/10/06 06:35:00;;;;;;;23.67;11.60;;;;;;;;;;143730;629;45020;-53
2021/10/06 06:37:27;;;;;;;25.75;12.15;;;;;;;;;;143731;622;46012;-52
2021/10/06 06:39:54;;;;;;;22.48;11.98;;;;;;;;;;143727;596;47036;-52
2021/10/06 06:42:21;;;;;;;31.40;11.68;;;;;;;;;;143728;581;46012;-52
2021/10/06 06:44:49;;;;;;;22.05;10.50;;;;;;;;;;143729;761;45020;-52
2021/10/06 06:47:15;;;;;;;18.15;10.43;;;;;;;;;;143731;577;46012;-52
2021/10/06 06:49:43;;;;;;;16.20;10.00;;;;;;;;;;143726;613;47020;-52
2021/10/06 06:52:10;;;;;;;19.70;10.25;;;;;;;;;;143729;606;46012;-52
2021/10/06 06:54:38;;;;;;;20.70;10.60;;;;;;;;;;143729;605;45021;-52
2021/10/06 06:57:05;;;;;;;25.45;12.20;;;;;;;;;;143730;689;46012;-53
2021/10/06 06:59:32;;;;;;;24.83;11.95;;;;;;;;;;143727;564;47022;-52
2021/10/06 07:01:59;;;;;;;30.65;14.38;;;;;;;;;;143730;616;46012;-52
2021/10/06 07:04:27;;;;;;;26.87;13.73;;;;;;;;;;143726;595;46023;-53
2021/10/06 07:06:56;;;;;;;29.42;14.10;;;;;;;;;;143732;579;46020;-52
2021/10/06 07:09:24;;;;;;;24.98;13.57;;;;;;;;;;143729;606;47021;-52
2021/10/06 07:11:54;;;;;;;39.22;17.08;;;;;;;;;;143723;596;50014;-52
2021/10/06 07:14:21;;;;;;;28.30;13.68;;;;;;;;;;143728;568;45020;-52
2021/10/06 07:16:49;;;;;;;27.20;14.15;;;;;;;;;;143734;606;46020;-52
2021/10/06 07:19:16;;;;;;;21.27;11.88;;;;;;;;;;143732;576;46039;-53
2021/10/06 07:21:46;;;;;;;24.35;10.60;;;;;;;;;;143732;609;46012;-52
2021/10/06 07:24:14;;;;;;;19.20;9.63;;;;;;;;;;143727;607;45021;-52
2021/10/06 07:26:44;;;;;;;24.50;10.05;;;;;;;;;;143733;627;46020;-53
2021/10/06 07:29:11;;;;;;;24.42;8.85;;;;;;;;;;143733;732;47020;-52
2021/10/06 07:31:38;;;;;;;19.25;9.93;;;;;;;;;;143729;653;46013;-52
2021/10/06 07:34:06;;;;;;;16.83;8.95;;;;;;;;;;143728;580;45020;-52
2021/10/06 07:36:33;;;;;;;31.40;11.63;;;;;;;;;;143731;767;46012;-52
2021/10/06 07:39:00;;;;;;;23.05;12.13;;;;;;;;;;143729;601;47021;-52
2021/10/06 07:41:28;;;;;;;24.37;12.45;;;;;;;;;;143728;569;47012;-52
2021/10/06 07:43:55;;;;;;;18.27;11.30;;;;;;;;;;143728;721;46014;-52
2021/10/06 07:46:22;;;;;;;24.45;13.75;;;;;;;;;;143733;589;46021;-52
2021/10/06 07:48:49;;;;;;;24.85;12.60;;;;;;;;;;143728;618;47020;-53
2021/10/06 07:51:16;;;;;;;25.23;14.07;;;;;;;;;;143727;569;47012;-52
2021/10/06 07:53:43;;;;;;;24.35;11.80;;;;;;;;;;143727;909;46020;-52
2021/10/06 07:56:10;;;;;;;15.85;10.75;;;;;;;;;;143732;813;46012;-52
2021/10/06 07:58:38;;;;;;;17.33;8.45;;;;;;;;;;143733;636;47020;-52
2021/10/06 08:01:05;;;;;;;21.55;11.12;;;;;;;;;;143730;564;46012;-52
2021/10/06 08:03:31;;;;;;;19.37;10.65;;;;;;;;;;143729;580;45020;-52
2021/10/06 08:05:58;;;;;;;20.70;10.80;;;;;;;;;;143735;585;46012;-52
2021/10/06 08:08:28;;;;;;;21.62;11.43;;;;;;;;;;143732;570;47021;-52
2021/10/06 08:10:56;;;;;;;18.23;9.25;;;;;;;;;;143721;633;50012;-52
2021/10/06 08:13:24;;;;;;;17.42;10.07;;;;;;;;;;143728;585;45020;-52
2021/10/06 08:15:52;;;;;;;20.52;9.30;;;;;;;;;;143734;592;46012;-52
2021/10/06 08:18:22;;;;;;;26.87;12.60;;;;;;;;;;143734;715;47020;-52
2021/10/06 08:20:56;;;;;;;20.08;8.98;;;;;;;;;;143726;575;47012;-52
2021/10/06 08:23:25;;;;;;;15.10;8.77;;;;;;;;;;143725;585;47021;-52
2021/10/06 08:25:53;;;;;;;20.50;11.07;;;;;;;;;;143732;822;46012;-52
2021/10/06 08:28:21;;;;;;;19.92;9.63;;;;;;;;;;143731;749;47022;-52
2021/10/06 08:30:48;;;;;;;22.42;8.95;;;;;;;;;;143731;572;46012;-52
2021/10/06 08:33:15;;;;;;;23.15;8.88;;;;;;;;;;143728;570;45021;-52
2021/10/06 08:35:42;;;;;;;18.85;8.43;;;;;;;;;;143733;568;46020;-52
2021/10/06 08:38:10;;;;;;;18.73;9.75;;;;;;;;;;143729;566;47047;-52
2021/10/06 08:40:38;;;;;;;23.77;8.95;;;;;;;;;;143733;596;46012;-52
2021/10/06 08:43:07;;;;;;;18.67;7.65;;;;;;;;;;143728;603;45020;-52
2021/10/06 08:45:35;;;;;;;17.62;7.85;;;;;;;;;;143732;687;46013;-52
2021/10/06 08:48:09;;;;;;;14.73;6.82;;;;;;;;;;143727;619;47023;-52
2021/10/06 08:50:38;;;;;;;14.20;7.45;;;;;;;;;;143735;743;46012;-52
2021/10/06 08:53:06;;;;;;;21.42;7.55;;;;;;;;;;143729;662;45021;-52
2021/10/06 08:55:34;;;;;;;17.73;8.60;;;;;;;;;;143732;834;46012;-52
2021/10/06 08:58:04;;;;;;;13.07;6.65;;;;;;;;;;143727;641;47022;-52
2021/10/06 09:00:49;;;;;;;18.73;7.50;;;;;;;;;;143732;597;46013;-52
2021/10/06 09:03:25;;;;;;;12.82;6.12;;;;;;;;;;143733;565;45020;-52
2021/10/06 09:06:06;;;;;;;12.15;6.90;;;;;;;;;;143731;588;46012;-52
2021/10/06 09:08:34;;;;;;;14.50;7.07;;;;;;;;;;143725;606;49012;-52
2021/10/06 09:11:02;;;;;;;15.40;7.30;;;;;;;;;;143726;610;48012;-52
2021/10/06 09:13:36;;;;;;;14.15;7.82;;;;;;;;;;143727;663;46012;-53
2021/10/06 09:16:04;;;;;;;17.05;8.77;;;;;;;;;;143729;600;47021;-52
2021/10/06 09:18:33;;;;;;;16.45;8.43;;;;;;;;;;143728;624;47020;-52
2021/10/06 09:21:06;;;;;;;23.23;8.27;;;;;;;;;;143724;771;48012;-52
2021/10/06 09:23:39;;;;;;;16.45;7.28;;;;;;;;;;143728;597;45021;-53
2021/10/06 09:26:08;;;;;;;17.35;7.70;;;;;;;;;;143730;586;46020;-53
2021/10/06 09:28:40;;;;;;;12.85;7.35;;;;;;;;;;143722;760;50025;-52
2021/10/06 09:31:10;;;;;;;17.80;7.65;;;;;;;;;;143728;578;46021;-52
2021/10/06 09:33:55;;;;;;;15.43;7.30;;;;;;;;;;143725;730;46020;-52
2021/10/06 09:36:29;;;;;;;15.23;6.22;;;;;;;;;;143730;586;46026;-52
2021/10/06 09:38:59;;;;;;;13.65;7.12;;;;;;;;;;143727;604;47022;-52
2021/10/06 09:41:38;;;;;;;18.55;7.10;;;;;;;;;;143733;707;46012;-52
2021/10/06 09:44:11;;;;;;;16.25;6.90;;;;;;;;;;143731;686;45021;-52
2021/10/06 09:47:00;;;;;;;11.50;6.53;;;;;;;;;;143731;576;46012;-52
2021/10/06 09:49:34;;;;;;;13.98;6.70;;;;;;;;;;143727;570;47020;-52
2021/10/06 09:52:22;;;;;;;11.85;6.55;;;;;;;;;;143725;666;48013;-53
2021/10/06 09:54:53;;;;;;;20.70;7.00;;;;;;;;;;143728;589;47026;-52
2021/10/06 09:57:37;;;;;;;15.30;6.70;;;;;;;;;;143731;815;46020;-52
2021/10/06 10:00:10;;;;;;;18.90;6.65;;;;;;;;;;143727;654;47021;-52
2021/10/06 10:02:37;;;;;;;15.38;6.28;;;;;;;;;;143732;738;46012;-52
2021/10/06 10:05:06;;;;;;;18.33;7.47;;;;;;;;;;143729;596;46012;-52
2021/10/06 10:07:33;;;;;;;15.98;6.62;;;;;;;;;;143735;589;46013;-52
2021/10/06 10:10:01;;;;;;;13.68;6.30;;;;;;;;;;143726;612;47023;-52
2021/10/06 10:12:30;;;;;;;18.05;6.62;;;;;;;;;;143729;566;47028;-52
2021/10/06 10:14:58;;;;;;;13.60;6.20;;;;;;;;;;143728;577;45021;-52
2021/10/06 10:17:25;;;;;;;17.65;7.60;;;;;;;;;;143731;701;46012;-53
2021/10/06 10:20:00;;;;;;;14.65;6.95;;;;;;;;;;143725;626;47014;-53
2021/10/06 10:22:32;;;;;;;14.68;6.75;;;;;;;;;;143731;586;49012;-53
2021/10/06 10:25:27;;;;;;;13.80;6.00;;;;;;;;;;143727;575;45021;-52
2021/10/06 10:28:03;;;;;;;14.95;6.90;;;;;;;;;;143728;565;46014;-52
2021/10/06 10:30:32;;;;;;;12.88;6.12;;;;;;;;;;143727;570;47022;-53
2021/10/06 10:32:59;;;;;;;13.38;6.03;;;;;;;;;;143735;575;46012;-52
2021/10/06 10:35:54;;;;;;;12.13;6.85;;;;;;;;;;143729;611;46014;-52
2021/10/06 10:38:21;;;;;;;13.40;6.50;;;;;;;;;;143758;577;44021;-53
2021/10/06 10:40:50;;;;;;;17.05;6.28;;;;;;;;;;143756;907;46020;-53
2021/10/06 10:43:27;;;;;;;14.57;6.60;;;;;;;;;;143754;587;46012;-52
2021/10/06 10:46:10;;;;;;;12.85;6.12;;;;;;;;;;143753;587;44909;-53
2021/10/06 10:49:01;;;;;;;14.70;6.97;;;;;;;;;;143760;611;45012;-53
2021/10/06 10:51:48;;;;;;;15.27;6.40;;;;;;;;;;143755;570;46022;-53
2021/10/06 10:54:39;;;;;;;12.98;6.25;;;;;;;;;;143754;603;46012;-52
2021/10/06 10:57:25;;;;;;;18.55;6.30;;;;;;;;;;143752;596;45020;-52
2021/10/06 10:59:58;;;;;;;15.15;6.20;;;;;;;;;;143758;564;45013;-52
2021/10/06 11:02:37;;;;;;;10.48;5.87;;;;;;;;;;143754;577;46023;-53
2021/10/06 11:05:07;;;;;;;16.77;6.75;;;;;;;;;;143752;593;46012;-52
2021/10/06 11:07:48;;;;;;;13.98;6.85;;;;;;;;;;143752;577;45020;-52
2021/10/06 11:10:19;;;;;;;11.75;6.57;;;;;;;;;;143753;656;45020;-53
2021/10/06 11:12:57;;;;;;;21.60;8.18;;;;;;;;;;143748;563;46022;-53
2021/10/06 11:15:25;;;;;;;18.48;9.18;;;;;;;;;;143753;573;45915;-53
2021/10/06 11:18:21;;;;;;;15.20;7.40;;;;;;;;;;143749;600;45909;-53
2021/10/06 11:21:00;;;;;;;19.30;10.10;;;;;;;;;;143757;593;45020;-53
2021/10/06 11:23:53;;;;;;;18.70;11.23;;;;;;;;;;143752;589;46021;-53
2021/10/06 11:26:25;;;;;;;18.45;8.50;;;;;;;;;;143752;577;46012;-53
2021/10/06 11:28:53;;;;;;;15.90;7.87;;;;;;;;;;143752;593;44909;-53
2021/10/06 11:31:26;;;;;;;16.10;7.78;;;;;;;;;;143758;606;45021;-54
2021/10/06 11:33:53;;;;;;;12.65;8.00;;;;;;;;;;143752;576;46022;-53
2021/10/06 11:36:27;;;;;;;18.00;8.43;;;;;;;;;;143747;573;47012;-53
2021/10/06 11:39:13;;;;;;;17.15;6.68;;;;;;;;;;143725;571;45021;-54
2021/10/06 11:41:46;;;;;;;12.48;6.28;;;;;;;;;;143728;572;46030;-54
2021/10/06 11:44:30;;;;;;;12.18;5.75;;;;;;;;;;143730;564;47021;-54
2021/10/06 11:47:15;;;;;;;13.13;6.80;;;;;;;;;;143728;577;46012;-54
2021/10/06 11:49:44;;;;;;;18.52;6.15;;;;;;;;;;143728;571;45021;-53
2021/10/06 11:52:13;;;;;;;18.60;6.37;;;;;;;;;;143729;663;46023;-54
2021/10/06 11:54:40;;;;;;;15.05;6.95;;;;;;;;;;143720;580;50020;-54
2021/10/06 11:57:09;;;;;;;16.85;10.07;;;;;;;;;;143725;633;47029;-54
2021/10/06 11:59:36;;;;;;;13.50;6.95;;;;;;;;;;143724;621;45909;-54
2021/10/06 12:02:08;;;;;;;15.65;7.45;;;;;;;;;;143728;594;46020;-54
2021/10/06 12:04:38;;;;;;;11.90;6.78;;;;;;;;;;143726;635;47020;-54
2021/10/06 12:07:19;;;;;;;19.73;6.43;;;;;;;;;;143730;577;46013;-53
2021/10/06 12:09:58;;;;;;;11.75;5.95;;;;;;;;;;143727;603;45021;-54
2021/10/06 12:12:28;;;;;;;13.80;5.70;;;;;;;;;;143728;591;46012;-54
2021/10/06 12:15:12;;;;;;;11.73;7.07;;;;;;;;;;143726;579;47022;-53
2021/10/06 12:17:48;;;;;;;12.27;6.22;;;;;;;;;;143726;595;46012;-53
2021/10/06 12:20:20;;;;;;;11.40;6.10;;;;;;;;;;143725;625;45022;-53
2021/10/06 12:22:56;;;;;;;14.85;5.40;;;;;;;;;;143729;597;46021;-53
2021/10/06 12:25:27;;;;;;;15.55;5.68;;;;;;;;;;143727;606;46022;-53
2021/10/06 12:28:06;;;;;;;16.42;6.25;;;;;;;;;;143726;578;46012;-53
2021/10/06 12:30:35;;;;;;;11.18;5.62;;;;;;;;;;143727;571;45021;-54
2021/10/06 12:33:08;;;;;;;11.20;5.85;;;;;;;;;;143729;582;46012;-54
2021/10/06 12:35:55;;;;;;;10.93;5.60;;;;;;;;;;143726;583;47020;-53
2021/10/06 12:38:36;;;;;;;11.82;5.85;;;;;;;;;;143752;599;46023;-54
2021/10/06 12:41:11;;;;;;;12.60;5.95;;;;;;;;;;143753;592;44910;-53
2021/10/06 12:43:47;;;;;;;10.38;5.40;;;;;;;;;;143756;612;45013;-53
2021/10/06 12:46:16;;;;;;;11.70;5.97;;;;;;;;;;143753;632;46020;-53
2021/10/06 12:48:47;;;;;;;14.80;6.55;;;;;;;;;;143749;611;46012;-53
2021/10/06 12:51:19;;;;;;;10.40;5.35;;;;;;;;;;143755;612;44021;-53
2021/10/06 12:54:21;;;;;;;12.95;6.53;;;;;;;;;;143757;584;45012;-52
2021/10/06 12:56:54;;;;;;;14.18;5.87;;;;;;;;;;143747;580;46020;-53
2021/10/06 12:59:32;;;;;;;16.33;6.55;;;;;;;;;;143752;624;46012;-53
2021/10/06 13:02:00;;;;;;;8.88;5.40;;;;;;;;;;143752;580;44909;-53
2021/10/06 13:04:27;;;;;;;14.65;5.80;;;;;;;;;;143758;585;45012;-53
2021/10/06 13:06:54;;;;;;;14.48;6.12;;;;;;;;;;143754;596;46021;-53
2021/10/06 13:09:21;;;;;;;15.77;6.00;;;;;;;;;;143754;659;46012;-52
2021/10/06 13:11:50;;;;;;;17.08;5.70;;;;;;;;;;143753;587;44910;-53
2021/10/06 13:14:18;;;;;;;10.13;5.37;;;;;;;;;;143755;592;45021;-53
2021/10/06 13:16:46;;;;;;;13.25;5.90;;;;;;;;;;143754;669;46020;-52
2021/10/06 13:19:14;;;;;;;10.63;5.60;;;;;;;;;;143753;744;45916;-53
2021/10/06 13:21:43;;;;;;;10.10;6.00;;;;;;;;;;143747;590;45910;-52
2021/10/06 13:24:12;;;;;;;13.10;6.15;;;;;;;;;;143757;567;45020;-52
2021/10/06 13:26:39;;;;;;;8.82;5.32;;;;;;;;;;143753;567;46022;-52
2021/10/06 13:29:07;;;;;;;10.52;6.07;;;;;;;;;;143753;576;46013;-52
2021/10/06 13:31:34;;;;;;;11.23;5.82;;;;;;;;;;143756;574;45020;-52
2021/10/06 13:34:01;;;;;;;11.77;5.60;;;;;;;;;;143758;610;45012;-52
2021/10/06 13:36:29;;;;;;;16.95;7.03;;;;;;;;;;143746;587;47021;-52
2021/10/06 13:38:56;;;;;;;10.90;5.25;;;;;;;;;;143726;622;46024;-52
2021/10/06 13:41:25;;;;;;;10.55;5.93;;;;;;;;;;143726;613;45021;-52
2021/10/06 13:43:52;;;;;;;12.60;6.28;;;;;;;;;;143729;566;46013;-52
2021/10/06 13:46:20;;;;;;;12.73;6.12;;;;;;;;;;143724;577;47023;-52
2021/10/06 13:48:48;;;;;;;16.90;6.43;;;;;;;;;;143727;595;46012;-52
2021/10/06 13:51:17;;;;;;;9.73;6.35;;;;;;;;;;143727;610;45021;-52
2021/10/06 13:53:45;;;;;;;10.32;5.80;;;;;;;;;;143729;578;46012;-52
2021/10/06 13:56:12;;;;;;;10.35;5.45;;;;;;;;;;143726;576;47020;-52
2021/10/06 13:58:39;;;;;;;9.30;5.95;;;;;;;;;;143726;673;46013;-52
2021/10/06 14:01:07;;;;;;;12.18;5.68;;;;;;;;;;143727;565;45021;-52
2021/10/06 14:03:36;;;;;;;11.30;6.10;;;;;;;;;;143727;638;46012;-52
2021/10/06 14:06:03;;;;;;;13.98;6.45;;;;;;;;;;143725;708;47022;-52
2021/10/06 14:08:30;;;;;;;11.52;6.53;;;;;;;;;;143729;589;46012;-52
2021/10/06 14:10:57;;;;;;;11.18;6.00;;;;;;;;;;143726;580;45020;-52
2021/10/06 14:13:24;;;;;;;9.23;5.72;;;;;;;;;;143729;564;46013;-52
2021/10/06 14:15:53;;;;;;;11.75;6.20;;;;;;;;;;143725;640;47020;-52
2021/10/06 14:18:21;;;;;;;10.20;7.05;;;;;;;;;;143727;617;46026;-52
2021/10/06 14:20:50;;;;;;;9.15;5.97;;;;;;;;;;143726;615;45021;-51
2021/10/06 14:23:18;;;;;;;10.82;6.30;;;;;;;;;;143729;618;46012;-53
2021/10/06 14:25:45;;;;;;;14.55;7.22;;;;;;;;;;143728;571;47020;-52
2021/10/06 14:28:13;;;;;;;11.88;6.07;;;;;;;;;;143729;599;46012;-52
2021/10/06 14:30:40;;;;;;;13.82;6.53;;;;;;;;;;143727;629;45021;-50
2021/10/06 14:33:08;;;;;;;14.00;6.40;;;;;;;;;;143729;612;46012;-51
2021/10/06 14:35:35;;;;;;;12.05;6.35;;;;;;;;;;143727;595;46050;-52
2021/10/06 14:38:03;;;;;;;10.50;6.20;;;;;;;;;;143725;591;47012;-52